Hendersonville, NC

10:52 AM EST on March 01, 2015 (GMT -0500)
Carriage Park | Change Station
CLOSE
Current Station
Personal Weather Station
Location: Hendersonville, NC
Elevation: 2670 ft
Nearby Weather Stations

Elev 2670 ft 35.34 °N, 82.51 °W | Updated 1 minute ago

Overcast
Overcast
39.6 °F
Feels Like 40 °F
N
2.0
Wind Variable Wind from SE
Gusts 5.0 mph

Today
High -- | Low -- °F
--% Chance of Precip.
Yesterday
High -- | Low -- °F
Precip. -- in
7:00 AM 6:25 PM
Waxing Gibbous, 85% visible
Pressure 30.51 in
Visibility 4.0 miles
Clouds Mostly Cloudy 800 ft
Overcast 2000 ft
Windchill 40 °F
Dew Point 38 °F
Humidity 95%
Rainfall 0.00 in
Snow Depth Not available.
UV 1 out of 12
Pollen 4.10 out of 12
Air Quality Not available.
Flu Activity Not available.
METAR KAVL 011454Z 16003KT 4SM BR BKN008 OVC020 02/01 A3047 RMK AO2 SLP330 60001 T00170006 56007

More Conditions Fewer Conditions

Pressure 30.51 in
Visibility 4.0 miles
Clouds Mostly Cloudy 800 ft
Overcast 2000 ft
Windchill 40 °F
Dew Point 38 °F
Humidity 95%
Rainfall 0.00 in
Snow Depth Not available.
UV 1 out of 12
Pollen 4.10 out of 12
Air Quality Not available.
Flu Activity Not available.
METAR KAVL 011454Z 16003KT 4SM BR BKN008 OVC020 02/01 A3047 RMK AO2 SLP330 60001 T00170006 56007

More Conditions Fewer Conditions

10-Day Weather Forecast

Almanac

Astronomy

Mar. 01, 2015 Rise Set
Actual Time
Civil Twilight
Nautical Twilight
Astronomical Twilight
Moon
Length of Visible Light
Length of Day
Tomorrow will be .
, % of the Moon is Illuminated

Today's Extremes

State Highs State Lows

Community

WunderPhotos

Upload Photos

1,801,435 photos uploaded!

WunderBlogs® & News

Nearby

Air Quality

  Air Quality AQ Index Pollutant
Not available.

Snow Depth

Station Depth Elevation

Earthquake Activity

City Distance Mag. Time & Date
Minimum magnitude displayed is 2.5.

Coastal Water Temperatures

Place Temperature

Nearby Weather Stations